aviador You're here:

KMYL Decoded Metar

MCCALL in ID, USA
Report Time2018-02-17 22:58:00
UTC Time2018-02-17 23:41:49
Flight Rules mvfr MVFR
Wind140° at 14 Gusting to 22 kt
W.Decomp.*RWY 16: 11.2 kt HW 8.4 kt LCW
W.Rank140° ranks 11
Current wind is above 140° avg. (6.9)
Visibility9999 m
Phenomena:N/A
Clouds:Overcast 015 Hf
Expected CloudBase > 1,200 ft AGL from Temp-Dew spread
Ceiling1,500 ft
Temp01°C (ISA -4)
Dew Point-2°C (81% RH)
AAT-6.3°C
QNH1006 hPa
Density Alt4,872 ft
Elevation5,030 ft
Report Wrong Elevation
Raw Report
KMYL 172258Z AUTO 14014G22KT 9SM OVC015 01/M02 A2970=

Extra information for KMYL:More info

Metar Taf Metar & Taf Last 4 Metars F.Rules Stats Wind Profile Meteogram Temp Stats Airport Information Weather charts Add Link Nearby VenuesMetar ALERT Operation Metar Decoded Social comments

AIRNAV info for KMYL